Aérodrome :
LOGIN :

S'inscrire | Disclaimer

   EN    FR    IT 

 










Légende :    VFR   VFR Marginal   IFR   IFR Intensif   IFR Très Intensif
Visi : 
Plafond : 
>= 8 km
>= 3000ft
5 à 8 km
1000 à 3000 ft
1500m à 5 km
500 à 1000 ft
800 à 1500m
200 à 500 ft
< 800m
< 200 ft
Symboles :   Orages  Brouillard  Fortes neiges  Fortes précipitations  Vent > 20 kt
SIGMETs :   Divers  Orages  Givrage  Turbulence  Onde Orograph.  Cendres Volcan.







- Altitude de l'aérodrome : 299 ft
- Code IATA : EDM
- Voir les cartes d'approche


LFRI - La Roche Sur Yon - Les Ajoncs

DERNIER METAR :
  • 260900Z AUTO 28006KT 240V310 9999 FEW021 BKN035 BKN042 17/12 Q1021 NOSIG

METARs EXPIRÉS :
  • 260830Z AUTO 29008KT 9999 SCT016 SCT030 BKN036 17/13 Q1021 NOSIG
  • 260800Z AUTO 29009KT 9999 FEW012 SCT018 BKN027 16/13 Q1021 NOSIG
  • 260730Z AUTO 28007KT 230V300 9999 SCT010 BKN018 BKN028 15/13 Q1021 NOSIG
  • 260700Z AUTO 28007KT 9999 SCT008 OVC028 15/14 Q1021 TEMPO BKN008
  • 260630Z AUTO 27005KT 9999 BKN007 OVC021 15/14 Q1021 BECMG BKN020

TAF TAF LFRI
Valide du 26 à 06h jusqu'au 27 à 06h UTC


260500Z 2606/2706 VRB04KT 9999 BKN020
TEMPO 2606/2608 BKN008
BECMG 2608/2610 27010KT
BECMG 2621/2623 BKN008
TEMPO 2700/2706 3000 -RADZ BKN003
Pas de NOTAMs connus pour ce terrain.



MET'MAP, la Météo Aéronautique d'un coup d'oeil ! - Copyright ORBIFLY Décembre 2007 - Disclaimer

ORBIFLY MET'MAP TEAM :

Programmation & Développement : Alexandra Zaïnal
Conception & Développement : Baudouin d'Aumeries
Co-Programmation & Développement : Marc-Olivier Méhu
Soutien technique & logistique : Manuel Goepfert

Contact : metmap@orbifly.com




SOURCES & CREDITS :

   NOAA